Time;durP1;ratioP1;P1;durP2;ratioP2;P2;SDS_P1;SDS_P2;PMS_P1;PMS_P2;Temp;Humidity;BMP_temperature;BMP_pressure;BME280_temperature;BME280_humidity;BME280_pressure;Samples;Min_cycle;Max_cycle;Signal;HPM_P1;HPM_P2
2021/12/01 00:00:55;;;;;;;1.60;1.30;;;14.90;64.40;;;;;;5073731;28;20016;-41
2021/12/01 00:03:22;;;;;;;2.63;1.60;;;14.90;64.40;;;;;;5073808;28;20117;-41
2021/12/01 00:05:48;;;;;;;2.22;1.30;;;14.90;64.40;;;;;;5075136;28;20019;-41
2021/12/01 00:08:14;;;;;;;2.63;1.40;;;14.90;64.50;;;;;;5076605;28;20012;-41
2021/12/01 00:10:40;;;;;;;1.92;1.30;;;15.00;64.40;;;;;;5059845;28;20039;-40
2021/12/01 00:13:11;;;;;;;1.48;1.15;;;14.90;64.30;;;;;;5078770;28;20017;-41
2021/12/01 00:15:39;;;;;;;;;;;14.90;64.40;;;;;;5077915;28;20012;-42
2021/12/01 00:18:05;;;;;;;1.58;1.20;;;14.90;64.30;;;;;;5059333;28;20375;-40
2021/12/01 00:20:31;;;;;;;2.42;1.30;;;14.90;64.30;;;;;;5077318;28;20031;-40
2021/12/01 00:22:59;;;;;;;1.60;1.25;;;14.90;64.40;;;;;;5076881;28;20028;-42
2021/12/01 00:25:25;;;;;;;2.72;1.30;;;14.90;64.60;;;;;;5077464;28;20054;-40
2021/12/01 00:27:51;;;;;;;2.70;1.50;;;14.80;64.90;;;;;;5059127;28;20016;-41
2021/12/01 00:30:17;;;;;;;1.30;1.20;;;14.60;65.50;;;;;;5059306;28;20017;-42
2021/12/01 00:32:44;;;;;;;3.38;1.38;;;14.60;65.80;;;;;;5076699;28;20012;-41
2021/12/01 00:35:11;;;;;;;1.70;1.50;;;14.70;65.70;;;;;;5076240;28;20023;-40
2021/12/01 00:37:37;;;;;;;2.92;1.30;;;14.70;65.60;;;;;;5076096;28;20513;-40
2021/12/01 00:40:05;;;;;;;2.05;1.27;;;14.70;65.90;;;;;;5076310;28;20043;-46
2021/12/01 00:42:32;;;;;;;1.83;1.23;;;14.70;65.10;;;;;;5075901;28;20678;-40
2021/12/01 00:45:01;;;;;;;2.17;1.52;;;14.80;65.00;;;;;;5075705;28;20040;-44
2021/12/01 00:48:09;;;;;;;2.67;1.27;;;14.80;64.90;;;;;;5076109;28;20056;-42
2021/12/01 00:50:36;;;;;;;2.55;1.25;;;14.70;65.00;;;;;;5062827;28;20576;-44
2021/12/01 00:53:04;;;;;;;2.20;1.40;;;14.80;64.80;;;;;;5077088;28;20023;-42
2021/12/01 00:55:31;;;;;;;3.50;1.30;;;14.80;64.70;;;;;;5077034;28;20087;-43
2021/12/01 00:57:57;;;;;;;1.30;1.20;;;14.80;64.60;;;;;;5076402;28;20020;-42
2021/12/01 01:00:25;;;;;;;1.85;1.10;;;14.80;64.50;;;;;;5075786;28;20017;-40
2021/12/01 01:02:52;;;;;;;2.85;1.10;;;14.80;64.50;;;;;;5058175;28;20477;-40
2021/12/01 01:05:19;;;;;;;2.22;1.10;;;14.80;64.50;;;;;;5075454;28;20052;-40
2021/12/01 01:07:44;;;;;;;1.48;1.10;;;14.80;64.40;;;;;;5075543;28;20377;-40
2021/12/01 01:18:19;;;;;;;1.58;1.10;;;14.80;64.30;;;;;;5060078;28;20059;-40
2021/12/01 01:20:45;;;;;;;1.30;1.15;;;14.90;64.80;;;;;;5076431;28;20039;-40
2021/12/01 01:23:12;;;;;;;2.20;1.20;;;14.80;64.20;;;;;;5077117;28;20025;-42
2021/12/01 01:25:38;;;;;;;1.67;1.40;;;14.90;64.20;;;;;;5077138;28;20009;-41
2021/12/01 01:28:04;;;;;;;1.02;0.90;;;14.80;64.10;;;;;;5077248;28;20016;-40
2021/12/01 01:30:31;;;;;;;1.80;1.35;;;14.90;64.10;;;;;;5076147;28;20354;-40
2021/12/01 01:32:57;;;;;;;1.73;1.15;;;14.90;64.10;;;;;;5076243;28;20043;-41
2021/12/01 01:35:23;;;;;;;1.02;0.90;;;14.80;64.10;;;;;;5057602;28;20046;-41
2021/12/01 01:37:49;;;;;;;2.03;1.10;;;14.80;64.10;;;;;;5075322;28;20362;-40
2021/12/01 01:40:16;;;;;;;1.95;1.20;;;14.80;64.10;;;;;;5074876;28;20032;-41
2021/12/01 01:42:43;;;;;;;2.30;1.20;;;14.80;64.10;;;;;;5075236;28;20039;-42
2021/12/01 01:45:09;;;;;;;1.48;0.93;;;14.80;64.00;;;;;;5056918;28;20537;-40
2021/12/01 01:47:35;;;;;;;1.15;0.95;;;14.80;64.00;;;;;;5056803;28;20374;-40
2021/12/01 01:50:34;;;;;;;1.52;1.02;;;14.80;64.00;;;;;;5074548;28;20019;-39
2021/12/01 01:52:49;;;;;;;1.23;1.02;;;14.80;63.90;;;;;;5073661;28;20039;-41
2021/12/01 01:55:14;;;;;;;1.42;0.90;;;14.80;63.90;;;;;;5056438;28;20029;-41
2021/12/01 01:57:43;;;;;;;1.73;1.15;;;14.80;63.90;;;;;;5074402;28;20115;-40
2021/12/01 02:00:10;;;;;;;1.25;1.10;;;14.90;63.80;;;;;;5056923;28;20393;-41
2021/12/01 02:02:35;;;;;;;2.15;1.10;;;14.90;63.80;;;;;;5040144;28;20031;-42
2021/12/01 02:05:01;;;;;;;2.00;1.02;;;14.80;63.80;;;;;;5056770;28;20017;-40
2021/12/01 02:07:29;;;;;;;1.30;0.98;;;14.80;63.80;;;;;;5074436;28;20127;-42
2021/12/01 02:09:55;;;;;;;2.28;1.20;;;14.80;63.80;;;;;;5075131;28;20028;-40
2021/12/01 02:12:21;;;;;;;2.97;1.33;;;14.70;64.00;;;;;;5075031;28;20020;-41
2021/12/01 02:14:49;;;;;;;1.70;1.25;;;14.70;64.00;;;;;;5057261;28;20055;-44
2021/12/01 02:17:15;;;;;;;1.13;1.00;;;14.70;63.80;;;;;;5074359;28;20020;-41
2021/12/01 02:19:41;;;;;;;1.35;0.93;;;14.70;63.90;;;;;;5074374;28;20491;-40
2021/12/01 02:22:08;;;;;;;1.77;0.90;;;14.80;63.80;;;;;;5056403;28;20496;-40
2021/12/01 02:24:34;;;;;;;1.23;1.10;;;14.70;63.70;;;;;;5073972;28;20019;-43
2021/12/01 02:27:00;;;;;;;1.73;1.05;;;14.70;63.60;;;;;;5056722;28;20043;-42
2021/12/01 02:29:27;;;;;;;1.52;1.02;;;14.70;63.70;;;;;;5073909;28;20029;-41
2021/12/01 02:31:54;;;;;;;1.60;1.00;;;14.70;63.60;;;;;;5074347;28;20494;-42
2021/12/01 02:34:22;;;;;;;2.83;1.20;;;14.70;63.60;;;;;;5074696;28;20044;-41
2021/12/01 02:36:51;;;;;;;1.00;0.80;;;14.70;63.90;;;;;;5075041;28;20480;-40
2021/12/01 02:39:18;;;;;;;2.17;1.08;;;14.70;63.70;;;;;;5074974;28;20036;-43
2021/12/01 02:41:45;;;;;;;1.67;0.90;;;14.70;63.80;;;;;;5074583;28;20499;-40
2021/12/01 02:44:12;;;;;;;1.65;1.00;;;14.70;63.80;;;;;;5074139;28;20093;-43
2021/12/01 02:46:38;;;;;;;1.10;1.00;;;14.60;63.70;;;;;;5073944;28;20016;-42
2021/12/01 02:49:05;;;;;;;1.27;1.00;;;14.60;63.60;;;;;;5074189;28;20013;-40
2021/12/01 02:51:32;;;;;;;1.17;1.00;;;14.60;63.70;;;;;;5073910;28;20009;-40
2021/12/01 02:53:58;;;;;;;2.22;0.90;;;14.50;63.80;;;;;;5074421;28;20025;-44
2021/12/01 02:56:27;;;;;;;2.55;1.02;;;14.50;64.00;;;;;;5056906;28;20027;-41
2021/12/01 02:58:53;;;;;;;1.33;1.00;;;14.60;63.90;;;;;;5074510;28;20019;-41
2021/12/01 03:01:21;;;;;;;1.75;1.10;;;14.60;63.70;;;;;;5074974;28;20051;-42
2021/12/01 03:03:48;;;;;;;1.10;0.82;;;14.50;64.00;;;;;;5075098;28;20461;-45
2021/12/01 03:06:14;;;;;;;2.47;1.20;;;14.40;64.30;;;;;;5075151;28;20457;-41
2021/12/01 03:08:41;;;;;;;1.63;1.10;;;14.30;64.60;;;;;;5057223;28;20488;-40
2021/12/01 03:11:07;;;;;;;2.45;1.20;;;14.30;64.70;;;;;;5075550;28;20453;-43
2021/12/01 03:13:33;;;;;;;1.45;1.20;;;14.20;65.00;;;;;;5073470;28;20062;-40
2021/12/01 03:16:02;;;;;;;2.20;1.20;;;14.20;65.20;;;;;;5073619;28;20012;-41
2021/12/01 03:18:28;;;;;;;1.92;1.17;;;14.30;64.60;;;;;;5073231;28;20024;-41
2021/12/01 03:20:54;;;;;;;2.40;1.13;;;14.20;64.90;;;;;;5073212;28;20013;-42
2021/12/01 03:23:20;;;;;;;1.40;1.05;;;14.20;64.90;;;;;;5057078;28;20384;-40
2021/12/01 03:25:46;;;;;;;2.28;1.20;;;14.10;65.10;;;;;;5073419;28;20461;-41
2021/12/01 03:28:12;;;;;;;2.28;1.13;;;14.10;65.40;;;;;;5072966;28;20503;-41
2021/12/01 03:30:38;;;;;;;2.00;1.23;;;14.10;65.30;;;;;;5074198;28;20013;-41
2021/12/01 03:33:06;;;;;;;3.00;1.10;;;14.10;65.00;;;;;;5057347;28;20017;-41
2021/12/01 03:35:32;;;;;;;1.85;1.10;;;14.10;65.10;;;;;;5074498;28;20013;-43
2021/12/01 03:37:58;;;;;;;1.50;0.90;;;14.20;64.70;;;;;;5055766;28;20102;-40
2021/12/01 03:40:24;;;;;;;1.65;1.05;;;14.20;64.40;;;;;;5074948;28;20027;-44
2021/12/01 03:42:50;;;;;;;1.50;1.05;;;14.30;64.10;;;;;;5077339;28;20024;-40
2021/12/01 03:45:16;;;;;;;3.38;1.10;;;14.40;63.50;;;;;;5077068;28;20005;-40
2021/12/01 03:47:42;;;;;;;1.40;1.00;;;14.60;62.80;;;;;;5058772;28;20066;-40
2021/12/01 03:50:08;;;;;;;1.90;0.80;;;14.60;63.00;;;;;;5059066;28;20055;-40
2021/12/01 03:52:35;;;;;;;1.15;0.95;;;14.30;63.70;;;;;;5042668;28;20025;-41
2021/12/01 03:55:01;;;;;;;2.03;0.90;;;14.20;64.30;;;;;;5076367;28;20012;-40
2021/12/01 03:57:29;;;;;;;2.35;0.90;;;14.20;64.10;;;;;;5077174;28;20032;-40
2021/12/01 03:59:55;;;;;;;1.20;0.90;;;14.30;63.40;;;;;;5042528;28;20051;-42
2021/12/01 04:02:21;;;;;;;1.33;0.90;;;14.40;63.20;;;;;;5059842;28;20032;-40
2021/12/01 04:04:47;;;;;;;2.10;1.00;;;14.60;62.40;;;;;;5059642;28;20527;-45
2021/12/01 04:07:13;;;;;;;1.77;0.90;;;14.70;62.10;;;;;;5077514;28;20422;-42
2021/12/01 04:09:40;;;;;;;0.90;0.73;;;14.70;62.00;;;;;;5043284;28;20059;-42
2021/12/01 04:12:07;;;;;;;1.45;0.90;;;14.70;61.90;;;;;;5060282;28;20484;-41
2021/12/01 04:14:32;;;;;;;2.35;0.80;;;14.90;61.20;;;;;;5060450;28;20035;-40
2021/12/01 04:16:58;;;;;;;0.98;0.70;;;14.70;62.00;;;;;;5076880;28;20021;-42
2021/12/01 04:19:24;;;;;;;2.03;0.90;;;14.70;62.00;;;;;;5076707;28;20413;-44
2021/12/01 04:21:50;;;;;;;1.30;0.73;;;14.90;61.20;;;;;;5075845;28;20048;-40
2021/12/01 04:24:16;;;;;;;0.98;0.68;;;15.20;60.20;;;;;;5057721;28;20016;-40
2021/12/01 04:26:42;;;;;;;1.85;0.80;;;15.20;60.00;;;;;;5075904;28;20005;-41
2021/12/01 04:29:08;;;;;;;2.15;0.80;;;15.40;59.40;;;;;;5075369;28;20016;-40
2021/12/01 04:31:35;;;;;;;0.90;0.70;;;15.50;58.90;;;;;;5058174;28;20048;-41
2021/12/01 04:34:02;;;;;;;2.10;0.95;;;15.60;58.70;;;;;;5075999;28;20025;-41
2021/12/01 04:36:33;;;;;;;1.35;0.70;;;15.60;58.40;;;;;;5075850;28;20017;-40
2021/12/01 04:38:59;;;;;;;1.08;0.68;;;15.60;58.70;;;;;;5076243;28;20114;-41
2021/12/01 04:41:25;;;;;;;2.80;0.88;;;15.70;58.30;;;;;;5058535;28;20579;-41
2021/12/01 04:43:53;;;;;;;0.82;0.80;;;15.50;58.70;;;;;;5058975;28;20107;-43
2021/12/01 04:46:20;;;;;;;1.20;0.77;;;15.60;58.70;;;;;;5059146;28;20544;-48
2021/12/01 04:48:46;;;;;;;1.30;0.68;;;15.80;58.10;;;;;;5057926;28;20472;-40
2021/12/01 04:51:13;;;;;;;1.88;1.02;;;15.80;57.80;;;;;;5075066;28;20011;-41
2021/12/01 04:53:38;;;;;;;1.15;0.57;;;15.90;57.50;;;;;;5075593;28;20016;-41
2021/12/01 04:56:05;;;;;;;2.00;0.70;;;15.80;57.80;;;;;;5075190;28;20017;-40
2021/12/01 04:58:33;;;;;;;1.25;0.77;;;15.90;57.80;;;;;;5075443;28;20017;-43
2021/12/01 05:01:00;;;;;;;1.70;0.60;;;15.90;57.50;;;;;;5075349;28;20465;-44
2021/12/01 05:03:25;;;;;;;1.20;0.57;;;16.00;57.30;;;;;;5075065;28;20104;-42
2021/12/01 05:05:52;;;;;;;1.83;0.50;;;16.10;57.00;;;;;;5075663;28;20055;-40
2021/12/01 05:08:20;;;;;;;0.98;0.50;;;16.00;57.30;;;;;;5075796;28;20020;-43
2021/12/01 05:10:46;;;;;;;1.23;0.60;;;16.00;57.50;;;;;;5075958;28;20022;-41
2021/12/01 05:13:12;;;;;;;1.25;0.50;;;16.00;57.30;;;;;;5075602;28;20457;-41
2021/12/01 05:15:38;;;;;;;0.95;0.50;;;16.10;57.00;;;;;;5075403;28;20508;-41
2021/12/01 05:18:05;;;;;;;0.60;0.50;;;16.20;56.90;;;;;;5074841;28;20035;-43
2021/12/01 05:20:30;;;;;;;0.85;0.52;;;16.30;56.70;;;;;;5075057;28;20016;-44
2021/12/01 05:22:57;;;;;;;0.45;0.40;;;16.40;56.30;;;;;;5057117;28;20108;-42
2021/12/01 05:25:22;;;;;;;0.50;0.40;;;16.40;56.20;;;;;;5074577;28;20138;-41
2021/12/01 05:27:49;;;;;;;1.08;0.50;;;16.40;56.20;;;;;;5074580;28;20024;-41
2021/12/01 05:30:15;;;;;;;2.03;0.50;;;16.30;56.30;;;;;;5074601;28;20015;-40
2021/12/01 05:32:40;;;;;;;0.77;0.57;;;16.40;56.20;;;;;;5057047;28;20025;-43
2021/12/01 05:35:07;;;;;;;1.30;0.40;;;16.40;55.90;;;;;;5075395;28;20026;-41
2021/12/01 05:37:32;;;;;;;0.70;0.40;;;16.50;55.70;;;;;;5075406;28;20024;-41
2021/12/01 05:39:59;;;;;;;1.08;0.40;;;16.60;55.70;;;;;;5057357;28;20039;-40
2021/12/01 05:42:25;;;;;;;1.27;0.50;;;16.70;55.40;;;;;;5075625;28;20060;-41
2021/12/01 05:44:51;;;;;;;0.50;0.30;;;16.70;55.20;;;;;;5075432;28;20027;-40
2021/12/01 05:47:18;;;;;;;0.68;0.50;;;16.70;55.10;;;;;;5075291;28;20100;-40
2021/12/01 05:49:44;;;;;;;0.60;0.40;;;16.80;54.90;;;;;;5057236;28;20472;-42
2021/12/01 05:52:11;;;;;;;0.40;0.40;;;16.90;54.80;;;;;;5074558;28;20074;-41
2021/12/01 05:54:37;;;;;;;0.82;0.47;;;16.90;54.80;;;;;;5074735;28;20029;-40
2021/12/01 05:57:03;;;;;;;0.82;0.45;;;16.70;55.00;;;;;;5057087;28;20032;-41
2021/12/01 05:59:29;;;;;;;0.70;0.40;;;16.80;54.80;;;;;;5075051;28;20009;-40
2021/12/01 06:01:55;;;;;;;2.05;0.40;;;16.80;54.60;;;;;;5074097;28;20032;-40
2021/12/01 06:04:24;;;;;;;1.08;0.40;;;16.90;54.50;;;;;;5074267;28;20084;-40
2021/12/01 06:06:50;;;;;;;1.35;0.40;;;17.00;54.30;;;;;;5057064;28;20500;-42
2021/12/01 06:09:16;;;;;;;0.40;0.40;;;17.10;54.00;;;;;;5074501;28;20027;-41
2021/12/01 06:11:45;;;;;;;0.82;0.40;;;17.20;53.70;;;;;;5073655;28;20469;-40
2021/12/01 06:14:13;;;;;;;0.50;0.38;;;17.30;53.40;;;;;;5056159;28;20107;-40
2021/12/01 06:16:38;;;;;;;1.10;0.40;;;17.40;53.10;;;;;;5056230;28;20129;-41
2021/12/01 06:19:04;;;;;;;1.15;0.30;;;17.50;52.80;;;;;;5055905;28;20046;-40
2021/12/01 06:21:30;;;;;;;0.65;0.40;;;17.50;52.70;;;;;;5073331;28;20008;-40
2021/12/01 06:23:56;;;;;;;0.80;0.50;;;17.60;52.50;;;;;;5056828;28;20024;-41
2021/12/01 06:26:22;;;;;;;0.30;0.30;;;17.60;52.40;;;;;;5040434;28;20012;-40
2021/12/01 06:28:48;;;;;;;0.70;0.30;;;17.60;52.30;;;;;;5074326;28;20504;-41
2021/12/01 06:31:14;;;;;;;0.80;0.30;;;17.70;52.30;;;;;;5057133;28;20016;-40
2021/12/01 06:33:40;;;;;;;0.65;0.40;;;17.70;52.20;;;;;;5074496;28;20518;-41
2021/12/01 06:36:05;;;;;;;0.52;0.35;;;17.80;52.00;;;;;;5074964;28;20540;-40
2021/12/01 06:38:32;;;;;;;0.32;0.32;;;17.80;52.00;;;;;;5056838;28;20080;-40
2021/12/01 06:40:58;;;;;;;0.73;0.40;;;17.80;52.00;;;;;;5075096;28;20100;-40
2021/12/01 06:43:24;;;;;;;0.90;0.30;;;17.80;51.90;;;;;;5074316;28;20122;-40
2021/12/01 06:45:51;;;;;;;0.25;0.22;;;17.90;51.80;;;;;;5074215;28;20023;-43
2021/12/01 06:48:17;;;;;;;0.80;0.30;;;17.90;51.70;;;;;;5074390;28;20017;-40
2021/12/01 06:50:43;;;;;;;0.65;0.40;;;17.90;51.60;;;;;;5056527;28;20465;-39
2021/12/01 06:53:10;;;;;;;0.40;0.40;;;18.00;51.60;;;;;;5056551;28;20045;-44
2021/12/01 06:55:36;;;;;;;0.82;0.47;;;18.00;51.40;;;;;;5055400;28;20028;-40
2021/12/01 06:58:01;;;;;;;0.85;0.30;;;18.00;51.30;;;;;;5055119;28;20017;-40
2021/12/01 07:00:27;;;;;;;0.70;0.40;;;18.00;51.30;;;;;;5072678;28;20030;-40
2021/12/01 07:02:53;;;;;;;0.57;0.30;;;18.00;51.20;;;;;;5072623;28;20043;-40
2021/12/01 07:05:19;;;;;;;0.30;0.30;;;18.10;51.20;;;;;;5055219;28;20059;-41
2021/12/01 07:07:45;;;;;;;0.57;0.38;;;18.10;51.20;;;;;;5072847;28;20069;-39
2021/12/01 07:10:12;;;;;;;0.45;0.40;;;18.10;51.10;;;;;;5054694;28;20104;-39
2021/12/01 07:12:39;;;;;;;0.30;0.30;;;18.10;51.00;;;;;;5054097;28;20469;-39
2021/12/01 07:15:07;;;;;;;0.80;0.40;;;18.10;51.00;;;;;;5056474;28;20021;-48
2021/12/01 07:17:33;;;;;;;0.38;0.30;;;18.20;51.10;;;;;;5057959;28;20491;-39
2021/12/01 07:19:58;;;;;;;1.75;0.35;;;18.20;51.10;;;;;;5058309;28;20025;-39
2021/12/01 07:22:25;;;;;;;0.20;0.20;;;18.20;51.00;;;;;;5040655;28;20025;-43
2021/12/01 07:24:50;;;;;;;0.30;0.30;;;18.20;51.00;;;;;;5075625;28;20040;-40
2021/12/01 07:27:16;;;;;;;0.50;0.30;;;18.20;50.90;;;;;;5059129;28;20020;-39
2021/12/01 07:29:42;;;;;;;1.40;0.50;;;18.20;50.90;;;;;;5076525;28;20425;-39
2021/12/01 07:32:11;;;;;;;0.55;0.45;;;18.20;51.00;;;;;;5059411;28;20029;-39
2021/12/01 07:34:42;;;;;;;1.50;0.55;;;18.20;50.90;;;;;;5059347;28;20005;-39
2021/12/01 07:37:18;;;;;;;2.38;0.40;;;18.20;51.10;;;;;;5076739;28;20024;-39
2021/12/01 07:39:44;;;;;;;0.98;0.50;;;18.10;51.40;;;;;;5076285;28;20040;-39
2021/12/01 07:42:10;;;;;;;2.65;0.52;;;18.20;51.40;;;;;;5058593;28;20020;-39
2021/12/01 07:44:35;;;;;;;3.38;0.45;;;18.30;51.40;;;;;;5058091;28;20015;-39
2021/12/01 07:47:01;;;;;;;1.35;0.40;;;18.30;51.40;;;;;;5076061;28;20017;-39
2021/12/01 07:49:27;;;;;;;1.50;0.40;;;18.30;51.40;;;;;;5076305;28;20016;-39
2021/12/01 07:51:52;;;;;;;1.90;0.50;;;18.30;51.40;;;;;;5076451;28;20027;-39
2021/12/01 07:54:18;;;;;;;1.92;0.52;;;18.40;51.50;;;;;;5058473;28;20016;-39
2021/12/01 07:56:44;;;;;;;0.80;0.43;;;18.40;51.50;;;;;;5058633;28;20024;-41
2021/12/01 07:59:13;;;;;;;2.00;0.50;;;18.40;51.50;;;;;;5058592;28;20157;-39
2021/12/01 08:01:38;;;;;;;1.00;0.40;;;18.40;51.50;;;;;;5059367;28;20463;-39
2021/12/01 08:04:04;;;;;;;1.02;0.50;;;18.40;51.50;;;;;;5076203;28;20013;-39
2021/12/01 08:06:32;;;;;;;1.23;0.45;;;18.40;52.00;;;;;;5058769;28;20161;-40
2021/12/01 08:09:00;;;;;;;2.28;0.55;;;18.50;51.50;;;;;;5076763;28;20028;-39
2021/12/01 08:11:26;;;;;;;2.65;0.40;;;18.50;51.50;;;;;;5075818;28;20091;-40
2021/12/01 08:13:52;;;;;;;2.13;0.43;;;18.50;51.50;;;;;;5075466;28;20063;-38
2021/12/01 08:16:19;;;;;;;2.20;0.50;;;18.50;51.50;;;;;;5057025;28;20538;-38
2021/12/01 08:18:51;;;;;;;1.45;0.40;;;18.50;51.60;;;;;;5056849;28;20516;-38
2021/12/01 08:21:20;;;;;;;2.03;0.60;;;18.50;51.60;;;;;;5056887;28;20069;-39
2021/12/01 08:23:48;;;;;;;1.02;0.38;;;18.60;51.70;;;;;;5040920;28;20020;-39
2021/12/01 08:26:14;;;;;;;1.50;0.40;;;18.60;51.70;;;;;;5039478;28;20021;-39
2021/12/01 08:28:42;;;;;;;1.58;0.40;;;18.60;51.80;;;;;;5075255;28;20005;-40
2021/12/01 08:31:08;;;;;;;3.08;0.57;;;18.60;51.80;;;;;;5074762;28;20081;-38
2021/12/01 08:33:36;;;;;;;1.65;0.40;;;18.60;51.80;;;;;;5055873;28;20092;-38
2021/12/01 08:36:01;;;;;;;1.50;0.55;;;18.60;51.90;;;;;;5037026;28;20056;-38
2021/12/01 08:38:27;;;;;;;3.58;0.60;;;18.70;51.90;;;;;;5036583;28;20091;-38
2021/12/01 08:40:53;;;;;;;3.03;0.50;;;18.70;52.00;;;;;;5054207;28;20040;-38
2021/12/01 08:43:19;;;;;;;2.47;0.50;;;18.70;52.00;;;;;;5054421;28;20087;-39
2021/12/01 08:45:44;;;;;;;1.58;0.40;;;18.70;52.10;;;;;;5054527;28;20036;-38
2021/12/01 08:48:11;;;;;;;4.03;0.60;;;18.70;52.10;;;;;;5036651;28;20052;-39
2021/12/01 08:50:37;;;;;;;5.00;0.47;;;18.70;52.10;;;;;;5054509;28;20013;-39
2021/12/01 08:53:02;;;;;;;0.63;0.40;;;18.70;52.20;;;;;;5054408;28;20029;-40
2021/12/01 08:55:28;;;;;;;5.65;0.77;;;18.80;52.20;;;;;;5054827;28;20040;-38
2021/12/01 08:57:55;;;;;;;4.35;0.60;;;18.80;52.20;;;;;;5036584;28;20029;-38
2021/12/01 09:00:22;;;;;;;3.40;0.60;;;18.80;52.20;;;;;;5020020;28;20037;-38
2021/12/01 09:02:47;;;;;;;0.77;0.50;;;18.70;52.30;;;;;;5053945;28;20053;-38
2021/12/01 09:05:13;;;;;;;4.75;0.90;;;18.80;52.30;;;;;;5053460;28;20018;-48
2021/12/01 09:07:39;;;;;;;3.10;0.52;;;18.80;52.30;;;;;;5054204;28;20494;-39
2021/12/01 09:10:08;;;;;;;3.13;0.43;;;18.80;52.30;;;;;;5036219;28;20079;-39
2021/12/01 09:12:35;;;;;;;2.08;0.50;;;18.70;52.60;;;;;;5020571;28;20028;-39
2021/12/01 09:15:01;;;;;;;2.92;0.65;;;18.50;52.70;;;;;;5035710;28;20055;-39
2021/12/01 09:17:27;;;;;;;7.70;0.73;;;18.50;52.80;;;;;;5035363;28;20408;-40
2021/12/01 09:19:53;;;;;;;4.18;0.50;;;18.50;52.80;;;;;;5052946;28;20142;-40
2021/12/01 09:22:19;;;;;;;3.45;0.50;;;18.50;52.80;;;;;;5053571;28;20059;-39
2021/12/01 09:24:46;;;;;;;2.13;0.40;;;18.60;52.80;;;;;;5054012;28;20032;-40
2021/12/01 09:27:13;;;;;;;3.50;0.50;;;18.60;52.80;;;;;;5053744;28;20025;-39
2021/12/01 09:29:39;;;;;;;3.60;0.73;;;18.70;52.80;;;;;;5053578;28;20009;-38
2021/12/01 09:32:06;;;;;;;8.50;1.08;;;18.70;52.90;;;;;;5053686;28;20492;-39
2021/12/01 09:34:32;;;;;;;4.35;0.77;;;18.70;52.90;;;;;;5053707;28;20047;-40
2021/12/01 09:36:58;;;;;;;7.10;0.77;;;18.60;53.00;;;;;;5036326;28;20143;-38
2021/12/01 09:39:24;;;;;;;7.47;0.85;;;18.60;53.10;;;;;;5052799;28;20089;-40
2021/12/01 09:41:51;;;;;;;4.85;0.80;;;18.60;53.10;;;;;;5053862;28;20057;-41
2021/12/01 09:44:17;;;;;;;2.90;0.82;;;18.60;53.10;;;;;;5019260;28;20100;-40
2021/12/01 09:46:44;;;;;;;9.43;1.10;;;18.60;52.90;;;;;;5035403;28;20044;-39
2021/12/01 09:49:10;;;;;;;7.78;0.90;;;18.70;52.90;;;;;;5053072;28;20070;-40
2021/12/01 09:51:36;;;;;;;10.23;1.50;;;18.70;52.90;;;;;;5035250;28;20021;-40
2021/12/01 09:54:02;;;;;;;4.95;0.90;;;18.70;52.90;;;;;;5035690;28;20381;-39
2021/12/01 09:56:33;;;;;;;5.75;1.00;;;18.70;52.80;;;;;;5035606;28;20013;-39
2021/12/01 09:58:59;;;;;;;8.23;1.02;;;18.70;52.60;;;;;;5035044;28;20370;-39
2021/12/01 10:01:25;;;;;;;8.70;1.00;;;18.70;52.70;;;;;;5053158;28;20021;-39
2021/12/01 10:03:52;;;;;;;8.52;1.10;;;18.70;52.70;;;;;;5035125;28;20017;-39
2021/12/01 10:06:19;;;;;;;11.57;1.08;;;18.70;52.50;;;;;;5052823;28;20108;-41
2021/12/01 10:08:51;;;;;;;9.02;1.02;;;18.70;52.40;;;;;;5089471;27;20467;-38
2021/12/01 10:11:19;;;;;;;13.57;1.20;;;18.70;52.40;;;;;;5088897;28;20477;-39
2021/12/01 10:13:48;;;;;;;10.50;1.60;;;18.70;52.20;;;;;;5089172;28;20023;-38
2021/12/01 10:16:15;;;;;;;15.10;2.10;;;18.70;52.20;;;;;;5071622;28;20070;-40
2021/12/01 10:18:49;;;;;;;12.63;1.40;;;18.70;51.80;;;;;;5071558;28;20088;-38
2021/12/01 10:21:32;;;;;;;6.43;1.00;;;18.70;51.70;;;;;;5089605;28;20054;-38
2021/12/01 10:24:10;;;;;;;10.32;1.08;;;18.70;51.10;;;;;;5072638;28;20024;-38
2021/12/01 10:26:43;;;;;;;7.13;1.05;;;18.70;51.20;;;;;;5088926;28;20497;-38
2021/12/01 10:29:14;;;;;;;8.15;1.75;;;18.70;51.00;;;;;;5088863;28;20019;-38
2021/12/01 10:31:54;;;;;;;6.90;1.30;;;18.70;50.80;;;;;;5089157;28;20074;-37
2021/12/01 10:34:30;;;;;;;3.97;1.20;;;18.70;50.60;;;;;;5071144;28;20103;-37
2021/12/01 10:40:24;;;;;;;6.55;1.35;;;18.80;50.10;;;;;;5089362;28;20024;-37
2021/12/01 10:42:57;;;;;;;9.38;1.45;;;18.80;49.80;;;;;;5070862;28;20016;-46
2021/12/01 10:45:27;;;;;;;8.10;1.27;;;18.70;49.50;;;;;;5072128;28;20021;-37
2021/12/01 10:47:53;;;;;;;7.82;0.85;;;18.70;49.40;;;;;;5088917;28;20103;-38
2021/12/01 10:50:21;;;;;;;8.90;1.15;;;18.70;49.30;;;;;;5089361;28;20044;-38
2021/12/01 10:52:55;;;;;;;5.68;0.95;;;18.70;49.10;;;;;;5088884;28;20024;-38
2021/12/01 10:55:22;;;;;;;6.65;0.90;;;18.70;48.90;;;;;;5070506;28;20052;-40
2021/12/01 10:57:54;;;;;;;6.45;1.00;;;18.80;48.50;;;;;;5054203;28;20013;-38
2021/12/01 11:00:26;;;;;;;8.23;1.00;;;18.80;48.30;;;;;;5089523;28;20044;-40
2021/12/01 11:02:53;;;;;;;7.95;0.85;;;18.90;48.10;;;;;;5056075;28;20042;-40
2021/12/01 11:05:46;;;;;;;7.68;1.00;;;18.80;47.80;;;;;;5091067;28;20016;-40
2021/12/01 11:08:20;;;;;;;7.50;0.80;;;18.90;47.70;;;;;;5087508;28;20040;-40
2021/12/01 11:10:47;;;;;;;6.97;0.93;;;18.90;47.60;;;;;;5090853;28;20016;-40
2021/12/01 11:13:13;;;;;;;6.18;1.10;;;18.90;47.40;;;;;;5056361;28;20020;-39
2021/12/01 11:15:43;;;;;;;6.97;1.02;;;18.90;47.20;;;;;;5090949;28;20012;-40
2021/12/01 11:18:21;;;;;;;3.75;0.75;;;19.00;47.20;;;;;;5088824;28;20016;-40
2021/12/01 11:20:48;;;;;;;6.38;0.80;;;19.00;47.00;;;;;;5059690;28;20024;-40
2021/12/01 11:23:30;;;;;;;7.65;0.95;;;19.00;46.90;;;;;;5058921;28;20107;-38
2021/12/01 11:26:20;;;;;;;6.18;1.20;;;19.00;46.80;;;;;;5059161;28;20021;-38
2021/12/01 11:28:47;;;;;;;9.43;1.13;;;19.00;46.80;;;;;;5059108;28;20479;-38
2021/12/01 11:31:25;;;;;;;8.80;0.90;;;19.00;46.70;;;;;;5077346;28;20027;-38
2021/12/01 11:33:55;;;;;;;5.40;1.05;;;19.00;46.70;;;;;;5059403;28;20013;-39
2021/12/01 11:36:25;;;;;;;8.13;1.13;;;19.00;46.70;;;;;;5077883;28;20062;-37
2021/12/01 11:38:59;;;;;;;8.90;1.38;;;19.00;46.60;;;;;;5079310;28;20012;-38
2021/12/01 11:41:28;;;;;;;6.10;0.95;;;18.90;46.60;;;;;;5080843;28;20001;-39
2021/12/01 11:43:53;;;;;;;7.05;1.15;;;18.90;46.80;;;;;;5080001;28;20009;-39
2021/12/01 11:46:19;;;;;;;3.15;0.73;;;18.80;46.80;;;;;;5080027;28;20017;-42
2021/12/01 11:48:50;;;;;;;6.60;1.17;;;18.80;46.90;;;;;;5061137;28;20017;-39
2021/12/01 11:51:25;;;;;;;7.45;1.10;;;18.70;46.90;;;;;;5044168;28;20040;-40
2021/12/01 11:54:15;;;;;;;7.25;1.05;;;18.70;47.10;;;;;;5076730;28;20039;-39
2021/12/01 11:56:52;;;;;;;4.15;0.93;;;18.60;47.30;;;;;;5076564;28;20023;-40
2021/12/01 11:59:24;;;;;;;7.63;1.90;;;18.50;47.40;;;;;;5077064;28;20513;-39
2021/12/01 12:01:58;;;;;;;9.02;1.10;;;18.40;47.40;;;;;;5078294;28;20044;-40
2021/12/01 12:04:24;;;;;;;4.78;0.90;;;18.40;47.60;;;;;;5077400;28;20077;-39
2021/12/01 12:07:02;;;;;;;4.85;0.77;;;18.40;47.70;;;;;;5076749;28;20044;-39
2021/12/01 12:09:29;;;;;;;7.60;1.50;;;18.20;47.80;;;;;;5077254;28;20008;-39
2021/12/01 12:12:10;;;;;;;7.07;1.08;;;18.10;48.10;;;;;;5060134;28;20009;-40
2021/12/01 12:14:49;;;;;;;7.90;1.17;;;18.00;48.20;;;;;;5079333;28;20009;-40
2021/12/01 12:17:32;;;;;;;11.90;1.13;;;18.00;48.40;;;;;;5077955;28;20016;-41
2021/12/01 12:20:12;;;;;;;8.82;1.02;;;18.00;48.40;;;;;;5076980;28;20023;-40
2021/12/01 12:22:45;;;;;;;6.38;0.90;;;18.00;48.50;;;;;;5077501;28;20468;-41
2021/12/01 12:25:32;;;;;;;7.13;1.00;;;17.90;48.60;;;;;;5078192;28;20020;-39
2021/12/01 12:27:57;;;;;;;10.35;1.60;;;17.90;48.80;;;;;;5076392;28;20032;-40
2021/12/01 12:30:29;;;;;;;8.35;1.25;;;17.80;48.80;;;;;;5057616;28;20021;-39
2021/12/01 12:33:18;;;;;;;13.45;1.13;;;17.80;48.90;;;;;;5076025;28;20055;-38
2021/12/01 12:35:46;;;;;;;5.28;1.33;;;17.70;49.10;;;;;;5076045;28;20009;-38
2021/12/01 12:38:12;;;;;;;8.35;1.02;;;17.60;49.10;;;;;;5075363;28;20021;-37
2021/12/01 12:40:38;;;;;;;5.97;1.00;;;17.60;49.60;;;;;;5075222;28;20031;-40
2021/12/01 12:43:14;;;;;;;5.88;0.98;;;17.50;49.50;;;;;;5075349;28;20078;-39
2021/12/01 12:45:58;;;;;;;8.55;1.25;;;17.50;49.60;;;;;;5076155;28;20505;-37
2021/12/01 12:48:29;;;;;;;4.35;0.90;;;17.40;49.60;;;;;;5076962;28;20145;-37
2021/12/01 12:51:31;;;;;;;7.53;1.17;;;17.40;49.70;;;;;;5058078;28;20509;-38
2021/12/01 12:54:07;;;;;;;7.95;0.90;;;17.40;49.80;;;;;;5075152;28;20032;-40
2021/12/01 12:56:35;;;;;;;9.15;0.98;;;17.30;49.90;;;;;;5076444;28;20066;-38
2021/12/01 12:59:21;;;;;;;7.93;1.23;;;17.30;50.00;;;;;;5076468;28;20050;-40
2021/12/01 13:01:53;;;;;;;6.70;1.52;;;17.30;50.10;;;;;;5076300;28;20095;-40
2021/12/01 13:04:46;;;;;;;7.15;1.10;;;17.30;50.00;;;;;;5076642;28;20013;-37